Time;durP1;ratioP1;P1;durP2;ratioP2;P2;SDS_P1;SDS_P2;PMS_P1;PMS_P2;Temp;Humidity;BMP_temperature;BMP_pressure;BME280_temperature;BME280_humidity;BME280_pressure;Samples;Min_cycle;Max_cycle;Signal;HPM_P1;HPM_P2
2023/06/09 00:02:22;;;;;;;25.02;7.53;;;11.80;99.90;;;;;;5117547;27;20509;-77
2023/06/09 00:04:48;;;;;;;27.55;7.95;;;11.90;99.90;;;;;;5107689;27;20047;-77
2023/06/09 00:07:20;;;;;;;22.77;7.93;;;11.80;99.90;;;;;;5095870;28;20086;-77
2023/06/09 00:09:45;;;;;;;27.25;7.65;;;11.80;99.90;;;;;;5072319;28;20469;-78
2023/06/09 00:12:12;;;;;;;22.88;7.20;;;11.70;99.90;;;;;;5104385;28;20067;-78
2023/06/09 00:14:37;;;;;;;23.50;7.70;;;11.80;99.90;;;;;;5088437;28;20032;-77
2023/06/09 00:17:07;;;;;;;23.45;7.78;;;12.00;99.90;;;;;;5110600;28;20050;-77
2023/06/09 00:19:34;;;;;;;29.75;7.93;;;11.80;99.90;;;;;;5102466;28;20036;-77
2023/06/09 00:22:01;;;;;;;26.63;8.70;;;11.70;99.90;;;;;;5086723;28;20039;-77
2023/06/09 00:24:26;;;;;;;23.05;8.23;;;11.80;99.90;;;;;;5092018;28;20035;-77
2023/06/09 00:26:52;;;;;;;23.38;9.32;;;11.70;99.90;;;;;;5122757;27;20036;-77
2023/06/09 00:29:22;;;;;;;27.45;9.00;;;11.70;99.90;;;;;;5086088;28;20043;-77
2023/06/09 00:31:48;;;;;;;30.15;8.75;;;11.70;99.90;;;;;;5087572;28;20397;-77
2023/06/09 00:34:13;;;;;;;27.02;9.55;;;11.70;99.90;;;;;;5099363;28;20044;-77
2023/06/09 00:36:40;;;;;;;27.90;9.40;;;11.70;99.90;;;;;;5114645;27;20039;-78
2023/06/09 00:39:05;;;;;;;27.85;10.93;;;11.70;99.90;;;;;;5115142;27;20585;-78
2023/06/09 00:41:38;;;;;;;29.35;10.50;;;11.70;99.90;;;;;;5087903;28;20044;-78
2023/06/09 00:44:07;;;;;;;34.15;12.02;;;11.70;99.90;;;;;;5089526;28;20397;-77
2023/06/09 00:46:33;;;;;;;33.72;10.60;;;11.60;99.90;;;;;;5116792;27;20504;-78
2023/06/09 00:49:00;;;;;;;32.85;10.90;;;11.50;99.90;;;;;;5109417;27;20043;-76
2023/06/09 00:51:26;;;;;;;23.10;9.30;;;11.80;99.90;;;;;;5110721;28;20417;-77
2023/06/09 00:53:52;;;;;;;24.63;10.38;;;12.10;99.90;;;;;;5087378;28;20397;-77
2023/06/09 00:56:18;;;;;;;29.10;10.48;;;12.40;99.90;;;;;;5114617;27;20032;-77
2023/06/09 00:58:44;;;;;;;22.67;10.40;;;11.70;99.90;;;;;;5099527;28;20043;-76
2023/06/09 01:01:10;;;;;;;22.77;10.32;;;11.70;99.90;;;;;;5108785;28;20060;-77
2023/06/09 01:03:38;;;;;;;28.05;11.35;;;12.00;99.90;;;;;;5118983;27;20524;-77
2023/06/09 01:06:26;;;;;;;22.70;10.88;;;11.60;99.90;;;;;;5111488;28;20039;-77
2023/06/09 01:09:01;;;;;;;34.78;10.40;;;11.70;99.90;;;;;;5086401;28;20039;-77
2023/06/09 01:11:38;;;;;;;38.00;11.38;;;11.70;99.90;;;;;;5106267;28;20435;-76
2023/06/09 01:14:26;;;;;;;25.38;10.48;;;11.70;99.90;;;;;;5114087;28;20050;-76
2023/06/09 01:17:07;;;;;;;27.25;10.48;;;11.70;99.90;;;;;;5104793;28;20055;-76
2023/06/09 01:19:36;;;;;;;25.20;11.00;;;11.70;99.90;;;;;;5080406;28;20527;-77
2023/06/09 01:22:08;;;;;;;28.10;10.40;;;11.60;99.90;;;;;;5090374;28;20077;-76
2023/06/09 01:25:17;;;;;;;23.80;10.45;;;11.60;99.90;;;;;;5095503;28;20039;-76
2023/06/09 01:27:44;;;;;;;27.27;10.77;;;11.60;99.90;;;;;;5031938;28;20547;-77
2023/06/09 01:30:13;;;;;;;31.25;10.93;;;11.60;99.90;;;;;;5024295;28;20052;-77
2023/06/09 01:32:41;;;;;;;26.95;10.27;;;11.50;99.90;;;;;;5098737;28;20136;-78
2023/06/09 01:35:07;;;;;;;28.65;10.13;;;11.50;99.90;;;;;;5100928;28;20423;-77
2023/06/09 01:37:36;;;;;;;24.60;9.27;;;11.50;99.90;;;;;;5094932;28;20067;-77
2023/06/09 01:40:03;;;;;;;21.50;9.80;;;11.50;99.90;;;;;;5090528;28;20604;-76
2023/06/09 01:42:35;;;;;;;25.08;9.68;;;11.50;99.90;;;;;;5090855;28;20047;-78
2023/06/09 01:45:01;;;;;;;33.80;9.98;;;11.70;99.90;;;;;;5108329;28;20492;-78
2023/06/09 01:47:26;;;;;;;29.48;10.65;;;11.60;99.90;;;;;;5090508;28;20034;-76
2023/06/09 01:50:01;;;;;;;22.38;8.95;;;11.50;99.90;;;;;;5112967;28;20104;-77
2023/06/09 01:52:41;;;;;;;30.58;9.88;;;11.60;99.90;;;;;;5089201;28;20035;-78
2023/06/09 01:55:24;;;;;;;32.15;9.55;;;11.60;99.90;;;;;;5112556;28;20028;-78
2023/06/09 01:58:00;;;;;;;18.27;8.88;;;11.60;99.90;;;;;;5127114;27;20508;-78
2023/06/09 02:00:28;;;;;;;25.02;9.35;;;11.60;99.90;;;;;;5110568;28;20682;-77
2023/06/09 02:02:57;;;;;;;27.25;8.95;;;11.60;99.90;;;;;;5109596;28;20044;-77
2023/06/09 02:05:23;;;;;;;24.05;9.43;;;11.60;99.90;;;;;;5116866;27;20043;-77
2023/06/09 02:07:51;;;;;;;29.63;9.55;;;11.60;99.90;;;;;;5105135;28;20066;-75
2023/06/09 02:10:20;;;;;;;23.08;9.48;;;11.60;99.90;;;;;;5073659;28;20054;-77
2023/06/09 02:12:45;;;;;;;22.60;9.02;;;11.70;99.90;;;;;;5088171;28;20047;-78
2023/06/09 02:15:13;;;;;;;26.40;8.93;;;11.60;99.90;;;;;;5110419;27;20042;-77
2023/06/09 02:17:39;;;;;;;;;;;11.60;99.90;;;;;;5111640;28;20081;-76
2023/06/09 02:20:08;;;;;;;26.08;9.52;;;11.60;99.90;;;;;;5084179;28;20014;-78
2023/06/09 02:22:35;;;;;;;19.33;9.00;;;11.60;99.90;;;;;;5101798;28;20044;-78
2023/06/09 02:25:04;;;;;;;21.60;8.95;;;11.60;99.90;;;;;;5068709;28;20047;-78
2023/06/09 02:27:32;;;;;;;25.08;9.63;;;11.60;99.90;;;;;;5097640;28;20167;-77
2023/06/09 02:29:59;;;;;;;25.10;9.60;;;11.60;99.90;;;;;;5109840;27;20039;-78
2023/06/09 02:32:25;;;;;;;26.77;10.35;;;11.60;99.90;;;;;;5116115;27;20106;-77
2023/06/09 02:34:52;;;;;;;33.08;10.23;;;11.60;99.90;;;;;;5110318;27;20047;-77
2023/06/09 02:37:23;;;;;;;25.65;11.00;;;11.50;99.90;;;;;;5100143;28;20424;-78
2023/06/09 02:39:49;;;;;;;24.35;9.73;;;11.80;99.90;;;;;;5117247;27;20035;-77
2023/06/09 02:42:17;;;;;;;29.13;10.27;;;11.90;99.90;;;;;;5082236;28;20048;-77
2023/06/09 02:44:48;;;;;;;22.52;9.98;;;11.50;99.90;;;;;;5092170;28;20042;-78
2023/06/09 02:47:17;;;;;;;31.17;9.85;;;11.50;99.90;;;;;;5070484;28;20044;-78
2023/06/09 02:49:42;;;;;;;33.72;10.38;;;11.50;99.90;;;;;;5105692;28;20541;-77
2023/06/09 02:52:09;;;;;;;26.73;11.23;;;11.50;99.90;;;;;;5113208;28;20123;-78
2023/06/09 02:54:39;;;;;;;25.08;10.05;;;11.40;99.90;;;;;;5108626;27;20146;-77
2023/06/09 02:57:06;;;;;;;30.58;11.15;;;11.50;99.90;;;;;;5122727;27;20028;-78
2023/06/09 02:59:32;;;;;;;34.47;10.82;;;11.40;99.90;;;;;;5082589;28;20120;-78
2023/06/09 03:01:58;;;;;;;24.52;10.25;;;11.40;99.90;;;;;;5112573;28;20457;-78
2023/06/09 03:04:24;;;;;;;29.52;10.57;;;11.40;99.90;;;;;;5105640;28;20086;-77
2023/06/09 03:06:50;;;;;;;26.98;9.93;;;11.40;99.90;;;;;;5103430;28;20040;-77
2023/06/09 03:09:16;;;;;;;30.25;10.60;;;11.40;99.90;;;;;;5093632;28;20055;-77
2023/06/09 03:11:42;;;;;;;27.65;9.30;;;11.40;99.90;;;;;;5105514;27;20477;-78
2023/06/09 03:14:07;;;;;;;25.00;10.05;;;11.40;99.90;;;;;;5103105;28;20040;-78
2023/06/09 03:16:34;;;;;;;29.15;10.68;;;11.40;99.90;;;;;;5085003;28;20120;-79
2023/06/09 03:19:00;;;;;;;26.30;10.55;;;11.50;99.90;;;;;;5106686;28;20040;-78
2023/06/09 03:21:26;;;;;;;24.90;10.52;;;11.50;99.90;;;;;;5092251;28;20048;-77
2023/06/09 03:23:52;;;;;;;26.85;11.07;;;11.50;99.90;;;;;;5093285;28;20043;-79
2023/06/09 03:26:18;;;;;;;29.92;10.18;;;11.50;99.90;;;;;;5128693;27;20047;-78
2023/06/09 03:28:46;;;;;;;31.52;11.18;;;11.50;99.90;;;;;;5110179;27;20374;-78
2023/06/09 03:31:13;;;;;;;25.88;11.25;;;11.70;99.90;;;;;;5113488;27;20082;-77
2023/06/09 03:33:39;;;;;;;29.33;11.68;;;11.50;99.90;;;;;;5112944;28;20904;-78
2023/06/09 03:36:04;;;;;;;29.08;10.70;;;11.50;99.90;;;;;;5125214;27;20063;-78
2023/06/09 03:38:30;;;;;;;24.38;10.32;;;11.50;99.90;;;;;;5076240;28;20031;-77
2023/06/09 03:40:56;;;;;;;21.83;10.75;;;11.60;99.90;;;;;;5110789;28;20382;-78
2023/06/09 03:43:21;;;;;;;34.80;9.90;;;11.50;99.90;;;;;;5112852;28;20058;-78
2023/06/09 03:45:47;;;;;;;22.02;10.70;;;11.60;99.90;;;;;;5102721;28;20476;-77
2023/06/09 03:48:13;;;;;;;29.13;11.70;;;12.30;99.90;;;;;;5117355;28;20062;-79
2023/06/09 03:50:40;;;;;;;28.60;10.98;;;11.60;99.90;;;;;;5116486;27;20047;-76
2023/06/09 03:53:09;;;;;;;23.63;11.43;;;11.70;99.90;;;;;;5106156;28;20178;-79
2023/06/09 03:55:34;;;;;;;26.35;10.82;;;11.70;99.90;;;;;;5124408;27;20063;-77
2023/06/09 03:58:00;;;;;;;26.58;11.88;;;11.70;99.90;;;;;;5086503;28;20028;-77
2023/06/09 04:00:26;;;;;;;27.73;12.18;;;11.70;99.90;;;;;;5081274;28;20050;-77
2023/06/09 04:02:51;;;;;;;26.83;10.63;;;11.80;99.90;;;;;;5128262;27;20374;-78
2023/06/09 04:05:18;;;;;;;29.27;11.60;;;11.80;99.90;;;;;;5118591;27;20043;-77
2023/06/09 04:07:44;;;;;;;29.40;11.52;;;11.90;99.90;;;;;;5091820;28;20095;-78
2023/06/09 04:10:09;;;;;;;27.90;10.90;;;11.90;99.90;;;;;;5106849;28;20040;-78
2023/06/09 04:12:35;;;;;;;32.20;10.82;;;11.90;99.90;;;;;;5105158;28;20549;-78
2023/06/09 04:15:01;;;;;;;21.75;10.60;;;11.90;99.90;;;;;;5106258;28;20381;-78
2023/06/09 04:17:27;;;;;;;26.58;10.23;;;12.00;99.90;;;;;;5110012;28;20043;-76
2023/06/09 04:19:59;;;;;;;25.50;10.43;;;12.10;99.90;;;;;;5105163;28;20035;-78
2023/06/09 04:22:24;;;;;;;23.80;9.27;;;12.00;99.90;;;;;;5104743;28;20040;-78
2023/06/09 04:24:52;;;;;;;30.25;9.07;;;12.10;99.90;;;;;;5113151;27;20074;-79
2023/06/09 04:27:19;;;;;;;27.08;9.40;;;12.10;99.90;;;;;;5102124;28;20043;-78
2023/06/09 04:29:45;;;;;;;33.73;9.30;;;12.20;99.90;;;;;;5085262;27;20051;-78
2023/06/09 04:32:14;;;;;;;32.30;9.73;;;12.10;99.90;;;;;;5099563;28;20866;-78
2023/06/09 04:34:40;;;;;;;22.30;8.35;;;12.30;99.90;;;;;;5110968;28;20047;-78
2023/06/09 04:37:08;;;;;;;21.88;8.77;;;12.30;99.90;;;;;;5102372;27;20501;-77
2023/06/09 04:39:34;;;;;;;24.63;9.25;;;12.30;99.90;;;;;;5102024;27;20101;-77
2023/06/09 04:42:03;;;;;;;23.70;8.30;;;12.40;99.90;;;;;;5121945;27;20040;-79
2023/06/09 04:44:32;;;;;;;24.77;8.32;;;12.40;99.90;;;;;;5094887;28;20089;-78
2023/06/09 04:46:58;;;;;;;25.10;8.68;;;12.70;99.90;;;;;;5112858;27;20035;-77
2023/06/09 04:49:25;;;;;;;27.65;8.38;;;12.50;99.90;;;;;;5115605;28;20080;-78
2023/06/09 04:51:51;;;;;;;28.40;9.15;;;12.60;99.90;;;;;;5090644;28;20051;-78
2023/06/09 04:54:18;;;;;;;18.65;8.00;;;13.20;99.90;;;;;;5108059;27;20159;-78
2023/06/09 04:56:52;;;;;;;30.38;8.07;;;12.80;99.90;;;;;;5099252;28;20508;-79
2023/06/09 04:59:18;;;;;;;26.35;8.40;;;13.20;99.90;;;;;;5099881;28;20505;-78
2023/06/09 05:01:46;;;;;;;25.48;8.07;;;12.90;99.90;;;;;;5089710;28;20537;-78
2023/06/09 05:04:14;;;;;;;;;;;13.00;99.90;;;;;;5112471;28;20509;-78
2023/06/09 05:06:40;;;;;;;21.00;8.13;;;13.00;99.90;;;;;;5116325;27;19919;-78
2023/06/09 05:09:08;;;;;;;22.15;9.00;;;13.10;99.90;;;;;;5081434;27;20112;-77
2023/06/09 05:11:34;;;;;;;20.08;8.52;;;13.20;99.90;;;;;;5112344;27;20106;-78
2023/06/09 05:14:00;;;;;;;24.88;8.45;;;13.30;99.90;;;;;;5084919;28;20047;-79
2023/06/09 05:16:27;;;;;;;23.98;8.20;;;13.50;99.90;;;;;;5093760;27;20113;-80
2023/06/09 05:18:53;;;;;;;26.50;8.55;;;13.40;99.90;;;;;;5095369;28;20054;-78
2023/06/09 05:21:25;;;;;;;23.02;8.18;;;13.50;99.90;;;;;;5100007;28;20508;-78
2023/06/09 05:23:52;;;;;;;20.40;7.70;;;13.60;99.90;;;;;;5113212;28;20119;-78
2023/06/09 05:26:18;;;;;;;23.77;8.13;;;13.70;99.90;;;;;;5108212;28;20095;-78
2023/06/09 05:28:46;;;;;;;30.13;8.65;;;13.70;99.90;;;;;;5094593;28;20131;-78
2023/06/09 05:31:16;;;;;;;20.02;8.38;;;13.80;99.90;;;;;;5105646;28;20044;-79
2023/06/09 05:33:43;;;;;;;22.23;8.40;;;13.90;99.90;;;;;;5089615;28;20076;-79
2023/06/09 05:36:09;;;;;;;22.98;7.88;;;14.00;99.90;;;;;;5079840;28;20066;-78
2023/06/09 05:38:35;;;;;;;19.98;8.30;;;14.10;99.90;;;;;;5111651;28;20040;-79
2023/06/09 05:41:01;;;;;;;25.63;7.80;;;14.60;99.90;;;;;;5089445;28;20058;-78
2023/06/09 05:43:28;;;;;;;26.48;8.27;;;14.40;99.90;;;;;;5077237;28;20477;-78
2023/06/09 05:45:54;;;;;;;23.70;8.52;;;15.10;99.90;;;;;;5100104;28;20075;-78
2023/06/09 05:48:20;;;;;;;22.58;7.30;;;14.60;99.90;;;;;;5108877;28;20533;-78
2023/06/09 05:50:46;;;;;;;18.42;7.30;;;15.30;99.90;;;;;;5116442;28;20146;-78
2023/06/09 05:53:16;;;;;;;20.27;7.68;;;14.90;99.90;;;;;;5110241;28;20190;-79
2023/06/09 05:55:44;;;;;;;24.40;7.57;;;15.00;99.90;;;;;;5088555;28;20113;-78
2023/06/09 05:58:16;;;;;;;;;;;15.20;99.90;;;;;;5118953;28;20051;-77
2023/06/09 06:00:44;;;;;;;30.85;8.52;;;15.50;99.90;;;;;;5118609;28;19965;-78
2023/06/09 06:03:14;;;;;;;20.55;8.05;;;16.10;99.90;;;;;;5085202;28;20043;-77
2023/06/09 06:05:44;;;;;;;21.08;7.05;;;15.40;99.90;;;;;;5090053;28;20047;-78
2023/06/09 06:08:09;;;;;;;29.48;7.18;;;16.60;99.90;;;;;;5110580;28;20031;-77
2023/06/09 06:10:44;;;;;;;21.77;6.60;;;16.40;99.90;;;;;;5086168;28;20597;-80
2023/06/09 06:13:13;;;;;;;19.05;6.82;;;16.50;99.90;;;;;;5083878;28;20514;-77
2023/06/09 06:15:39;;;;;;;19.90;6.43;;;16.80;99.90;;;;;;5097691;28;20047;-77
2023/06/09 06:18:05;;;;;;;20.08;6.55;;;17.50;99.90;;;;;;5117678;28;20031;-78
2023/06/09 06:20:34;;;;;;;23.35;7.10;;;16.70;99.90;;;;;;5088854;28;20044;-77
2023/06/09 06:22:59;;;;;;;22.40;7.30;;;15.90;99.90;;;;;;5118833;28;20043;-77
2023/06/09 06:25:25;;;;;;;17.90;7.05;;;16.40;99.90;;;;;;5119461;28;20259;-79
2023/06/09 06:27:51;;;;;;;19.58;7.03;;;15.80;99.90;;;;;;5088048;28;20044;-78
2023/06/09 06:30:17;;;;;;;27.30;7.25;;;16.70;99.90;;;;;;5117615;28;20123;-78
2023/06/09 06:32:50;;;;;;;18.63;6.88;;;16.20;99.90;;;;;;5071093;28;20043;-78
2023/06/09 06:35:27;;;;;;;20.52;7.00;;;16.70;99.90;;;;;;5103976;28;20051;-78
2023/06/09 06:37:53;;;;;;;23.98;7.50;;;16.30;99.90;;;;;;5104073;28;20050;-78
2023/06/09 06:40:18;;;;;;;23.65;7.00;;;16.40;99.90;;;;;;5116304;27;20100;-77
2023/06/09 06:42:44;;;;;;;17.55;7.40;;;16.50;99.90;;;;;;5105255;28;20048;-78
2023/06/09 06:45:16;;;;;;;18.50;6.95;;;16.60;99.90;;;;;;5095992;28;20043;-79
2023/06/09 06:47:43;;;;;;;21.08;7.57;;;16.60;99.90;;;;;;5070250;28;20105;-78
2023/06/09 06:50:09;;;;;;;22.05;6.78;;;16.80;99.90;;;;;;5069604;28;20051;-79
2023/06/09 06:52:36;;;;;;;21.77;7.78;;;16.60;99.90;;;;;;5114494;28;20047;-79
2023/06/09 06:55:02;;;;;;;18.77;7.25;;;16.70;99.90;;;;;;5069673;28;20554;-78
2023/06/09 06:57:28;;;;;;;26.00;7.13;;;16.80;99.90;;;;;;5090117;28;20123;-78
2023/06/09 06:59:53;;;;;;;20.38;6.90;;;16.90;99.90;;;;;;5115883;28;20481;-79
2023/06/09 07:02:19;;;;;;;20.55;7.60;;;17.00;99.90;;;;;;5106566;28;20043;-78
2023/06/09 07:04:44;;;;;;;26.75;7.05;;;17.10;99.90;;;;;;5083566;28;20043;-78
2023/06/09 07:07:10;;;;;;;20.23;7.45;;;17.20;99.90;;;;;;5098556;28;20036;-78
2023/06/09 07:09:37;;;;;;;25.42;7.78;;;17.30;99.90;;;;;;5112297;28;20051;-79
2023/06/09 07:12:03;;;;;;;15.77;6.57;;;17.40;99.90;;;;;;5116694;28;20028;-78
2023/06/09 07:14:30;;;;;;;14.75;6.32;;;17.60;99.90;;;;;;5106088;28;20035;-78
2023/06/09 07:16:56;;;;;;;21.35;7.32;;;18.10;99.90;;;;;;5111538;27;20044;-79
2023/06/09 07:19:21;;;;;;;21.88;6.43;;;17.80;99.90;;;;;;5073930;28;20032;-79
2023/06/09 07:21:47;;;;;;;15.15;7.00;;;17.90;99.90;;;;;;5111501;28;20108;-78
2023/06/09 07:24:13;;;;;;;21.90;6.32;;;18.00;99.90;;;;;;5081462;28;20039;-79
2023/06/09 07:26:38;;;;;;;16.67;5.90;;;18.00;99.90;;;;;;5108911;27;20031;-79
2023/06/09 07:29:04;;;;;;;21.73;6.70;;;18.10;99.90;;;;;;5084556;28;20485;-79
2023/06/09 07:31:32;;;;;;;22.40;6.72;;;18.20;99.90;;;;;;5103371;28;20039;-78
2023/06/09 07:33:57;;;;;;;;;;;18.40;99.90;;;;;;5107947;27;20132;-79
2023/06/09 07:36:24;;;;;;;17.23;6.25;;;18.40;99.90;;;;;;5106122;28;19924;-79
2023/06/09 07:38:50;;;;;;;18.70;6.45;;;18.40;99.90;;;;;;5089209;28;20047;-79
2023/06/09 07:41:20;;;;;;;18.73;6.45;;;18.60;99.90;;;;;;5092490;28;20048;-80
2023/06/09 07:43:49;;;;;;;17.20;6.55;;;18.70;99.90;;;;;;5081244;28;20116;-80
2023/06/09 07:46:14;;;;;;;17.02;6.72;;;18.80;99.90;;;;;;5090114;27;20047;-79
2023/06/09 07:48:42;;;;;;;15.65;5.97;;;19.00;99.90;;;;;;5101391;27;20110;-78
2023/06/09 07:51:09;;;;;;;15.73;6.53;;;19.00;99.90;;;;;;5073076;28;20401;-79
2023/06/09 07:53:36;;;;;;;18.27;6.63;;;19.20;99.90;;;;;;5106334;28;20043;-79
2023/06/09 07:56:02;;;;;;;14.80;6.75;;;19.30;99.90;;;;;;5097300;28;20048;-80
2023/06/09 07:58:28;;;;;;;20.13;6.63;;;19.30;99.90;;;;;;5110522;28;20046;-79
2023/06/09 08:00:56;;;;;;;17.67;6.43;;;19.50;99.90;;;;;;5097514;28;20048;-81
2023/06/09 08:03:23;;;;;;;16.30;6.82;;;19.50;99.90;;;;;;5117659;27;20044;-79
2023/06/09 08:05:49;;;;;;;14.43;5.93;;;19.60;99.90;;;;;;5112114;27;20032;-80
2023/06/09 08:08:15;;;;;;;17.85;5.63;;;19.60;99.90;;;;;;5100777;28;20062;-80
2023/06/09 08:10:41;;;;;;;17.27;6.25;;;19.50;99.90;;;;;;5121883;27;20099;-80
2023/06/09 08:13:08;;;;;;;16.50;6.65;;;19.80;99.90;;;;;;5120051;27;20074;-79
2023/06/09 08:15:33;;;;;;;13.07;5.95;;;19.90;99.90;;;;;;5102552;28;20039;-80
2023/06/09 08:17:59;;;;;;;21.17;6.90;;;20.10;99.90;;;;;;5077212;27;20067;-80
2023/06/09 08:20:25;;;;;;;18.08;5.63;;;20.20;99.90;;;;;;5093094;27;20058;-80
2023/06/09 08:22:50;;;;;;;15.30;6.07;;;20.30;99.90;;;;;;5098810;28;20078;-78
2023/06/09 08:25:16;;;;;;;18.90;6.40;;;20.40;99.90;;;;;;5117347;27;20066;-79
2023/06/09 08:27:42;;;;;;;12.10;5.35;;;20.50;99.90;;;;;;5112846;27;20074;-78
2023/06/09 08:30:10;;;;;;;15.00;5.80;;;20.60;99.90;;;;;;5116882;28;20057;-80
2023/06/09 08:32:36;;;;;;;13.68;5.75;;;20.70;99.90;;;;;;5127478;27;20141;-79
2023/06/09 08:35:08;;;;;;;14.57;5.85;;;20.80;99.90;;;;;;5121126;28;20436;-79
2023/06/09 08:37:36;;;;;;;12.40;5.57;;;20.80;99.90;;;;;;5120319;27;20036;-79
2023/06/09 08:40:04;;;;;;;14.73;6.13;;;21.00;99.90;;;;;;5095918;28;20040;-79
2023/06/09 08:42:34;;;;;;;17.33;6.03;;;21.00;99.90;;;;;;5097688;28;20050;-79
2023/06/09 08:45:03;;;;;;;16.60;5.78;;;21.20;99.90;;;;;;5073451;28;20066;-78
2023/06/09 08:47:30;;;;;;;18.58;6.15;;;21.20;99.90;;;;;;5095140;28;20056;-79
2023/06/09 08:50:02;;;;;;;17.60;5.68;;;21.30;99.90;;;;;;5115380;27;20052;-78
2023/06/09 08:52:29;;;;;;;13.50;5.70;;;21.40;99.90;;;;;;5099372;28;20148;-79
2023/06/09 08:54:58;;;;;;;15.80;4.90;;;21.60;99.90;;;;;;5132728;27;20073;-79
2023/06/09 08:57:27;;;;;;;15.30;5.57;;;21.90;99.90;;;;;;5116627;27;20055;-78
2023/06/09 08:59:53;;;;;;;14.70;5.78;;;21.90;99.90;;;;;;5101609;27;20087;-80
2023/06/09 09:02:19;;;;;;;12.27;5.30;;;22.00;99.90;;;;;;5086796;28;20024;-79
2023/06/09 09:04:49;;;;;;;13.32;5.43;;;22.10;99.90;;;;;;5139272;27;20051;-79
2023/06/09 09:07:15;;;;;;;16.67;5.20;;;22.30;99.90;;;;;;5102830;28;22183;-77
2023/06/09 09:09:41;;;;;;;13.80;5.32;;;22.40;99.90;;;;;;5113846;28;20055;-80
2023/06/09 09:12:13;;;;;;;15.07;4.70;;;22.40;99.90;;;;;;5130190;27;20076;-78
2023/06/09 09:14:44;;;;;;;14.00;5.93;;;22.50;99.90;;;;;;5102538;28;20051;-79
2023/06/09 09:17:11;;;;;;;13.02;5.50;;;22.60;99.90;;;;;;5123685;28;20127;-79
2023/06/09 09:19:41;;;;;;;12.80;5.13;;;22.70;99.90;;;;;;5105420;28;20043;-79
2023/06/09 09:22:08;;;;;;;14.50;5.63;;;22.80;99.90;;;;;;5103036;28;20053;-79
2023/06/09 09:24:43;;;;;;;11.73;5.20;;;22.90;99.90;;;;;;5087340;27;20032;-78
2023/06/09 09:27:16;;;;;;;12.40;5.70;;;23.00;99.90;;;;;;5093765;28;20058;-80
2023/06/09 09:29:42;;;;;;;13.35;6.03;;;23.20;99.90;;;;;;5092639;28;20086;-79
2023/06/09 09:32:08;;;;;;;11.38;5.30;;;23.40;99.90;;;;;;5107922;28;20052;-80
2023/06/09 09:34:34;;;;;;;12.98;4.78;;;23.40;99.90;;;;;;5113932;28;20036;-80
2023/06/09 09:37:00;;;;;;;10.43;4.60;;;23.50;99.90;;;;;;5121384;28;20067;-78
2023/06/09 09:39:26;;;;;;;13.75;4.93;;;23.60;99.90;;;;;;5089350;28;20128;-78
2023/06/09 09:42:07;;;;;;;18.55;5.63;;;23.70;99.90;;;;;;5114133;27;20044;-78
2023/06/09 09:44:40;;;;;;;14.88;4.88;;;23.90;99.10;;;;;;5102717;28;20085;-79
2023/06/09 09:47:08;;;;;;;13.77;5.43;;;24.00;98.90;;;;;;5091979;28;20404;-80
2023/06/09 09:49:34;;;;;;;11.52;5.32;;;24.10;99.20;;;;;;5116713;28;20043;-79
2023/06/09 09:52:01;;;;;;;12.05;5.03;;;24.20;99.10;;;;;;5093019;28;20060;-78
2023/06/09 09:54:29;;;;;;;15.80;5.63;;;24.20;98.60;;;;;;5092780;28;20047;-80
2023/06/09 09:56:58;;;;;;;14.55;4.78;;;24.30;97.80;;;;;;5084317;28;20036;-80
2023/06/09 09:59:25;;;;;;;9.93;5.05;;;24.30;97.40;;;;;;5084133;28;20048;-78
2023/06/09 10:01:55;;;;;;;12.60;5.93;;;24.20;98.00;;;;;;5111631;28;20040;-79
2023/06/09 10:04:25;;;;;;;13.40;5.20;;;24.30;97.50;;;;;;5091437;28;20020;-78
2023/06/09 10:06:53;;;;;;;13.05;5.00;;;24.50;97.40;;;;;;5119429;28;20050;-79
2023/06/09 10:09:25;;;;;;;15.50;5.57;;;24.40;96.30;;;;;;5112238;28;20092;-79
2023/06/09 10:11:54;;;;;;;10.18;4.60;;;24.60;96.60;;;;;;5074690;28;20036;-78
2023/06/09 10:14:20;;;;;;;13.95;5.10;;;24.70;96.80;;;;;;5090369;28;20084;-79
2023/06/09 10:16:47;;;;;;;12.95;4.80;;;24.90;96.30;;;;;;5121632;28;20044;-79
2023/06/09 10:19:16;;;;;;;14.55;5.22;;;24.90;96.20;;;;;;5107937;28;20028;-81
2023/06/09 10:21:45;;;;;;;10.20;4.97;;;25.00;95.60;;;;;;5096755;28;20096;-79
2023/06/09 10:24:12;;;;;;;12.07;4.68;;;25.20;95.70;;;;;;5110986;28;20131;-79
2023/06/09 10:26:38;;;;;;;11.43;4.60;;;25.20;95.60;;;;;;5122917;28;20035;-81
2023/06/09 10:29:11;;;;;;;12.45;4.32;;;25.30;95.30;;;;;;5103442;28;20047;-79
2023/06/09 10:31:43;;;;;;;15.20;5.00;;;25.40;95.20;;;;;;5092300;28;20036;-80
2023/06/09 10:34:11;;;;;;;12.02;4.80;;;25.50;94.70;;;;;;5112522;28;20047;-79
2023/06/09 10:36:40;;;;;;;10.55;4.90;;;25.70;95.00;;;;;;5109104;28;20055;-80
2023/06/09 10:39:22;;;;;;;15.43;5.22;;;25.90;94.70;;;;;;5118305;28;20067;-79
2023/06/09 10:42:13;;;;;;;10.32;5.05;;;26.10;94.00;;;;;;5090665;28;20051;-79
2023/06/09 10:44:53;;;;;;;10.73;4.95;;;26.30;94.30;;;;;;5088203;28;20535;-80
2023/06/09 10:47:45;;;;;;;12.30;5.75;;;26.40;94.30;;;;;;5107602;28;20036;-80
2023/06/09 10:50:31;;;;;;;11.38;5.40;;;26.70;94.20;;;;;;5066414;28;20103;-80
2023/06/09 10:52:58;;;;;;;13.95;4.90;;;26.80;93.40;;;;;;5048426;28;20053;-80
2023/06/09 10:55:28;;;;;;;10.13;5.13;;;26.80;94.20;;;;;;5080774;28;20037;-80
2023/06/09 10:57:55;;;;;;;14.32;5.55;;;26.90;93.50;;;;;;5071786;28;20049;-79
2023/06/09 11:00:22;;;;;;;13.50;4.90;;;26.90;93.80;;;;;;5083224;28;20036;-79
2023/06/09 11:03:12;;;;;;;;;;;27.00;93.20;;;;;;5069051;28;20052;-82
2023/06/09 11:05:42;;;;;;;11.43;5.50;;;27.20;93.60;;;;;;5095328;28;19932;-80
2023/06/09 11:08:08;;;;;;;11.48;5.20;;;27.30;93.20;;;;;;5072118;28;20083;-78
2023/06/09 11:10:37;;;;;;;10.30;4.97;;;27.40;93.10;;;;;;5064524;28;20379;-79
2023/06/09 11:13:39;;;;;;;12.60;4.93;;;27.40;92.70;;;;;;5063889;28;20048;-78
2023/06/09 11:16:08;;;;;;;9.07;4.45;;;27.50;92.50;;;;;;5067252;28;20056;-80
2023/06/09 11:18:33;;;;;;;11.82;4.70;;;27.60;91.70;;;;;;5064017;28;20059;-79
2023/06/09 11:21:21;;;;;;;9.43;4.65;;;27.60;91.60;;;;;;5063638;28;20045;-80
2023/06/09 11:24:01;;;;;;;12.63;5.03;;;27.40;91.10;;;;;;5059285;28;20134;-79
2023/06/09 11:26:27;;;;;;;13.27;4.88;;;27.70;91.20;;;;;;5080238;28;20566;-79
2023/06/09 11:28:53;;;;;;;14.47;5.03;;;27.90;91.40;;;;;;5084166;28;20048;-78
2023/06/09 11:31:20;;;;;;;9.38;4.72;;;28.00;91.80;;;;;;5080373;28;20041;-80
2023/06/09 11:33:50;;;;;;;10.10;4.45;;;28.20;91.00;;;;;;5073877;28;20048;-79
2023/06/09 11:36:18;;;;;;;6.80;4.07;;;28.40;90.70;;;;;;5043828;28;20041;-79
2023/06/09 11:38:45;;;;;;;9.00;4.57;;;28.40;90.30;;;;;;5074038;28;20051;-79
2023/06/09 11:41:20;;;;;;;9.48;4.78;;;28.50;89.20;;;;;;5076890;28;20041;-79
2023/06/09 11:43:50;;;;;;;10.82;4.43;;;28.40;88.80;;;;;;5047212;28;20049;-79
2023/06/09 11:46:17;;;;;;;8.88;4.13;;;28.40;89.10;;;;;;5061610;28;20526;-79
2023/06/09 11:48:58;;;;;;;9.65;4.35;;;28.40;87.60;;;;;;5065136;28;20040;-80
2023/06/09 11:51:24;;;;;;;12.27;4.65;;;28.40;86.30;;;;;;5090988;28;20074;-77
2023/06/09 11:53:52;;;;;;;9.15;4.70;;;28.40;87.20;;;;;;5116730;28;20040;-79
2023/06/09 11:56:18;;;;;;;9.88;4.00;;;28.30;87.30;;;;;;5071188;28;20055;-79
2023/06/09 11:58:51;;;;;;;11.80;5.00;;;28.50;86.70;;;;;;5117638;28;20066;-79
2023/06/09 12:01:28;;;;;;;13.18;4.40;;;28.40;84.60;;;;;;5100232;28;20039;-79
2023/06/09 12:03:56;;;;;;;12.70;4.83;;;28.30;85.80;;;;;;5090006;28;20043;-79
2023/06/09 12:06:22;;;;;;;9.68;4.60;;;28.30;85.20;;;;;;5117524;28;20377;-79
2023/06/09 12:08:50;;;;;;;6.97;4.30;;;28.30;86.40;;;;;;5116914;28;20076;-79
2023/06/09 12:11:16;;;;;;;8.55;4.47;;;28.50;85.80;;;;;;5083234;28;20046;-80
2023/06/09 12:13:47;;;;;;;11.75;5.10;;;28.50;83.40;;;;;;5076517;28;20111;-78
2023/06/09 12:16:16;;;;;;;8.25;4.40;;;28.30;83.10;;;;;;5091343;28;20069;-79
2023/06/09 12:18:42;;;;;;;11.50;4.18;;;28.30;83.80;;;;;;5127790;27;20090;-80
2023/06/09 12:21:10;;;;;;;16.10;5.10;;;28.40;82.40;;;;;;5106911;28;20488;-78
2023/06/09 12:23:35;;;;;;;12.85;4.63;;;28.30;80.70;;;;;;5076688;28;20466;-79
2023/06/09 12:26:06;;;;;;;8.43;4.50;;;28.10;82.90;;;;;;5101544;28;20119;-78
2023/06/09 12:28:34;;;;;;;12.48;4.97;;;28.10;81.80;;;;;;5120102;28;20385;-79
2023/06/09 12:31:11;;;;;;;9.35;4.72;;;28.20;81.60;;;;;;5126468;27;20559;-78
2023/06/09 12:33:38;;;;;;;10.90;4.70;;;28.30;82.10;;;;;;5082517;28;20055;-78
2023/06/09 12:36:09;;;;;;;;;;;28.40;80.60;;;;;;5087594;28;20093;-79
2023/06/09 12:38:45;;;;;;;11.40;4.63;;;28.30;81.40;;;;;;5102977;28;20483;-79
2023/06/09 12:41:13;;;;;;;8.77;4.30;;;28.40;81.30;;;;;;5102291;28;20386;-79
2023/06/09 12:43:48;;;;;;;10.35;4.05;;;28.60;81.80;;;;;;5089871;28;20062;-79
2023/06/09 12:46:19;;;;;;;13.52;5.20;;;28.90;80.90;;;;;;5115409;28;20027;-79